Time;durP1;ratioP1;P1;durP2;ratioP2;P2;SDS_P1;SDS_P2;PMS_P1;PMS_P2;Temp;Humidity;BMP_temperature;BMP_pressure;BME280_temperature;BME280_humidity;BME280_pressure;Samples;Min_cycle;Max_cycle;Signal;HPM_P1;HPM_P2
2023/03/26 00:00:16;;;;;;;3.58;1.23;;;;;;;9.59;92.21;97647.91;4119847;28;21313;-86
2023/03/26 00:02:19;;;;;;;3.47;1.17;;;;;;;9.59;92.53;97658.31;4123073;28;20208;-86
2023/03/26 00:04:24;;;;;;;1.70;1.08;;;;;;;9.59;92.31;97653.09;4121680;28;20725;-86
2023/03/26 00:06:28;;;;;;;4.18;1.42;;;;;;;9.62;92.51;97650.28;4126807;28;20211;-86
2023/03/26 00:08:32;;;;;;;4.67;1.10;;;;;;;9.66;92.79;97654.34;4134548;28;20254;-86
2023/03/26 00:10:37;;;;;;;3.33;0.98;;;;;;;9.69;92.11;97659.31;4120100;28;20630;-86
2023/03/26 00:12:40;;;;;;;2.15;1.20;;;;;;;9.70;91.93;97666.19;4131779;28;20208;-86
2023/03/26 00:14:43;;;;;;;3.50;1.30;;;;;;;9.72;92.00;97659.09;4123666;28;20302;-86
2023/03/26 00:16:48;;;;;;;3.13;1.37;;;;;;;9.75;91.58;97658.88;4107514;28;20707;-85
2023/03/26 00:18:52;;;;;;;2.90;1.20;;;;;;;9.79;91.84;97668.13;4129491;28;20688;-86
2023/03/26 00:20:55;;;;;;;4.82;1.60;;;;;;;9.84;92.00;97666.84;4105623;28;20672;-86
2023/03/26 00:23:00;;;;;;;3.65;1.20;;;;;;;9.86;91.82;97665.81;4107710;28;20316;-86
2023/03/26 00:25:04;;;;;;;3.55;1.23;;;;;;;9.83;91.14;97667.78;4106474;28;20205;-86
2023/03/26 00:27:09;;;;;;;2.73;0.93;;;;;;;9.83;91.40;97659.16;4123167;28;20207;-86
2023/03/26 00:29:12;;;;;;;2.70;1.00;;;;;;;9.82;91.35;97657.47;4123606;28;21069;-85
2023/03/26 00:31:16;;;;;;;4.07;1.38;;;;;;;9.83;91.48;97664.38;4126424;28;20642;-86
2023/03/26 00:33:19;;;;;;;2.70;1.33;;;;;;;9.82;91.27;97660.09;4125677;28;20204;-86
2023/03/26 00:35:22;;;;;;;5.50;2.30;;;;;;;9.80;90.92;97651.56;4137367;28;20649;-86
2023/03/26 00:37:26;;;;;;;3.80;1.40;;;;;;;9.79;90.94;97660.31;4125496;28;20643;-86
2023/03/26 00:39:32;;;;;;;2.30;1.88;;;;;;;9.80;91.26;97661.97;4130894;28;20722;-86
2023/03/26 00:41:41;;;;;;;3.80;1.70;;;;;;;9.77;91.24;97663.03;4142014;28;20215;-86
2023/03/26 00:43:47;;;;;;;4.20;1.80;;;;;;;9.78;91.13;97666.47;4141243;28;21328;-86
2023/03/26 00:45:53;;;;;;;3.50;2.20;;;;;;;9.77;91.31;97665.63;4139411;28;21023;-86
2023/03/26 00:47:57;;;;;;;3.47;1.60;;;;;;;9.74;91.37;97662.41;4123630;28;20631;-86
2023/03/26 00:50:00;;;;;;;5.93;3.40;;;;;;;9.69;91.64;97654.13;4111034;28;20715;-86
2023/03/26 00:52:03;;;;;;;6.63;1.73;;;;;;;9.65;91.68;97655.25;4127431;28;20636;-86
2023/03/26 00:54:07;;;;;;;3.80;1.23;;;;;;;9.62;91.41;97658.09;4126292;28;20634;-86
2023/03/26 00:56:10;;;;;;;4.40;1.23;;;;;;;9.58;90.92;97641.03;4125422;28;20724;-86
2023/03/26 00:58:14;;;;;;;4.87;1.30;;;;;;;9.54;91.42;97639.59;4113036;28;20613;-86
2023/03/26 01:00:30;;;;;;;3.03;1.23;;;;;;;9.51;91.36;97621.59;4134599;28;20889;-86
2023/03/26 01:02:34;;;;;;;3.07;1.40;;;;;;;9.48;90.95;97630.44;4122436;28;20736;-86
2023/03/26 01:04:39;;;;;;;4.53;1.63;;;;;;;9.48;91.33;97621.81;4128055;28;20678;-86
2023/03/26 01:06:44;;;;;;;3.57;1.50;;;;;;;9.46;91.67;97621.09;4108874;28;20735;-86
2023/03/26 01:08:49;;;;;;;2.23;1.37;;;;;;;9.44;91.52;97620.34;4129908;28;21106;-86
2023/03/26 01:11:01;;;;;;;3.65;1.48;;;;;;;9.43;92.04;97616.09;4114159;28;20667;-86
2023/03/26 01:13:05;;;;;;;3.33;1.10;;;;;;;9.38;91.46;97611.22;4122268;28;20262;-86
2023/03/26 01:15:12;;;;;;;2.67;1.40;;;;;;;9.37;91.42;97608.75;4130633;28;20291;-86
2023/03/26 01:17:18;;;;;;;2.30;1.42;;;;;;;9.34;90.83;97601.16;4124611;28;20683;-86
2023/03/26 01:19:29;;;;;;;3.60;1.33;;;;;;;9.31;91.46;97595.34;4136478;28;20204;-86
2023/03/26 01:21:33;;;;;;;1.77;1.40;;;;;;;9.28;91.70;97590.34;4108110;28;20197;-86
2023/03/26 01:23:41;;;;;;;2.70;1.50;;;;;;;9.23;91.84;97588.06;4129022;28;21249;-86
2023/03/26 01:25:50;;;;;;;3.63;1.50;;;;;;;9.23;91.99;97592.44;4113919;28;20287;-86
2023/03/26 01:27:56;;;;;;;3.78;1.77;;;;;;;9.21;91.75;97589.94;4137329;28;21192;-86
2023/03/26 01:30:05;;;;;;;7.85;2.20;;;;;;;9.17;92.58;97582.47;4106115;28;20750;-86
2023/03/26 01:32:17;;;;;;;2.95;1.35;;;;;;;9.14;92.65;97588.72;4126559;28;20650;-86
2023/03/26 01:34:29;;;;;;;2.90;1.60;;;;;;;9.14;92.04;97573.13;4136375;28;20242;-86
2023/03/26 01:36:40;;;;;;;3.53;2.00;;;;;;;9.11;91.97;97580.28;4124981;28;20685;-86
2023/03/26 01:38:48;;;;;;;3.03;1.42;;;;;;;9.03;92.72;97575.63;4128397;28;20641;-86
2023/03/26 01:40:58;;;;;;;3.40;1.60;;;;;;;8.99;91.84;97569.00;4138917;28;20276;-86
2023/03/26 01:43:08;;;;;;;4.63;1.48;;;;;;;8.92;92.65;97567.75;4123536;28;21087;-86
2023/03/26 01:45:16;;;;;;;4.17;1.70;;;;;;;8.86;92.08;97553.53;4122462;28;20253;-86
2023/03/26 01:47:19;;;;;;;3.00;1.95;;;;;;;8.77;91.21;97556.78;4124353;28;20816;-86
2023/03/26 01:49:29;;;;;;;2.80;1.80;;;;;;;8.78;92.80;97555.81;4122174;28;20570;-86
2023/03/26 01:51:35;;;;;;;1.87;1.43;;;;;;;8.75;92.07;97553.44;4113383;28;20209;-86
2023/03/26 01:53:41;;;;;;;5.20;1.80;;;;;;;8.72;92.00;97546.72;4121775;28;20651;-85
2023/03/26 01:55:54;;;;;;;5.13;2.17;;;;;;;8.71;93.09;97546.81;4126772;28;20652;-86
2023/03/26 01:58:04;;;;;;;2.30;1.50;;;;;;;8.68;93.55;97547.03;4113112;28;20230;-85
2023/03/26 02:00:19;;;;;;;4.07;1.80;;;;;;;8.67;93.17;97542.75;4121960;28;20196;-86
2023/03/26 02:02:27;;;;;;;3.95;1.55;;;;;;;8.70;92.62;97539.94;4139563;28;20204;-86
2023/03/26 02:04:36;;;;;;;3.50;1.55;;;;;;;8.65;93.42;97548.06;4122499;28;20257;-86
2023/03/26 02:06:44;;;;;;;6.50;1.70;;;;;;;8.64;93.07;97541.19;4121769;28;20200;-86
2023/03/26 02:08:52;;;;;;;1.92;1.55;;;;;;;8.65;92.49;97535.06;4111861;28;20200;-86
2023/03/26 02:10:57;;;;;;;3.90;1.40;;;;;;;8.65;92.40;97529.03;4128372;28;20299;-86
2023/03/26 02:13:04;;;;;;;3.70;1.80;;;;;;;8.63;92.13;97536.09;4107735;28;20214;-86
2023/03/26 02:15:09;;;;;;;4.50;1.80;;;;;;;8.63;93.84;97528.28;4111311;28;20643;-86
2023/03/26 02:17:13;;;;;;;4.55;1.60;;;;;;;8.64;93.82;97527.38;4140349;28;20630;-86
2023/03/26 02:19:20;;;;;;;3.22;1.90;;;;;;;8.62;93.33;97511.88;4134969;28;20203;-85
2023/03/26 02:21:25;;;;;;;3.13;1.40;;;;;;;8.67;93.49;97509.78;4107518;28;20294;-86
2023/03/26 02:23:37;;;;;;;3.95;1.67;;;;;;;8.66;93.68;97502.09;4108968;28;20322;-86
2023/03/26 02:25:42;;;;;;;3.92;1.80;;;;;;;8.63;92.68;97494.50;4122074;28;20799;-86
2023/03/26 02:27:49;;;;;;;5.05;1.80;;;;;;;8.63;92.96;97499.72;4119570;28;20200;-86
2023/03/26 02:29:55;;;;;;;3.00;1.85;;;;;;;8.64;92.13;97486.59;4107403;28;20256;-86
2023/03/26 02:32:01;;;;;;;5.13;1.70;;;;;;;8.63;93.05;97492.75;4139571;28;20258;-86
2023/03/26 02:34:04;;;;;;;2.00;1.60;;;;;;;8.61;92.16;97478.22;4122217;28;20208;-86
2023/03/26 02:36:12;;;;;;;4.15;2.00;;;;;;;8.58;93.32;97478.41;4142024;28;20663;-85
2023/03/26 02:38:18;;;;;;;5.80;2.05;;;;;;;8.55;92.63;97478.63;4136521;28;20246;-86
2023/03/26 02:40:23;;;;;;;3.35;1.95;;;;;;;8.54;93.09;97482.19;4124713;28;20266;-86
2023/03/26 02:42:28;;;;;;;5.55;2.15;;;;;;;8.52;93.60;97479.69;4137286;28;20200;-86
2023/03/26 02:44:32;;;;;;;5.30;1.92;;;;;;;8.52;93.38;97476.25;4122380;28;20232;-85
2023/03/26 02:46:37;;;;;;;6.40;2.10;;;;;;;8.50;93.62;97470.34;4125224;28;20273;-85
2023/03/26 02:48:55;;;;;;;2.92;1.90;;;;;;;8.45;93.38;97469.84;4143072;28;20281;-86
2023/03/26 02:51:01;;;;;;;5.93;1.90;;;;;;;8.44;93.56;97469.94;4124126;28;20724;-86
2023/03/26 02:53:28;;;;;;;3.63;1.80;;;;;;;8.43;92.46;97460.47;4137816;28;20692;-85
2023/03/26 02:55:50;;;;;;;2.75;1.52;;;;;;;8.44;92.54;97462.97;4125344;28;20259;-86
2023/03/26 02:57:56;;;;;;;4.18;1.75;;;;;;;8.38;93.61;97453.00;4106397;28;20595;-86
2023/03/26 03:00:12;;;;;;;5.10;2.30;;;;;;;8.34;94.20;97448.94;4119704;28;20219;-86
2023/03/26 03:02:37;;;;;;;2.45;1.55;;;;;;;8.31;93.61;97449.16;4123872;28;20580;-86
2023/03/26 03:05:00;;;;;;;4.00;2.20;;;;;;;8.27;93.91;97442.53;4120325;28;20691;-85
2023/03/26 03:07:07;;;;;;;2.17;1.60;;;;;;;8.25;92.62;97448.78;4139076;28;20688;-86
2023/03/26 03:09:11;;;;;;;3.47;1.60;;;;;;;8.24;92.71;97447.94;4114064;28;20204;-86
2023/03/26 03:11:23;;;;;;;3.83;2.00;;;;;;;8.25;94.50;97435.78;4122658;28;20219;-85
2023/03/26 03:13:27;;;;;;;4.03;1.80;;;;;;;8.21;93.93;97426.53;4090414;28;20240;-86
2023/03/26 03:15:30;;;;;;;3.25;1.65;;;;;;;8.20;93.62;97436.09;4111448;28;20647;-85
2023/03/26 03:17:33;;;;;;;3.05;1.85;;;;;;;8.20;93.20;97433.50;4125875;28;20364;-86
2023/03/26 03:19:38;;;;;;;3.28;1.55;;;;;;;8.19;94.76;97434.44;4128117;28;20207;-85
2023/03/26 03:21:41;;;;;;;5.05;1.90;;;;;;;8.17;93.52;97431.13;4106072;28;20288;-85
2023/03/26 03:23:44;;;;;;;3.97;2.30;;;;;;;8.17;94.64;97430.31;4140334;28;20696;-86
2023/03/26 03:25:51;;;;;;;4.65;2.00;;;;;;;8.19;93.27;97434.44;4113314;28;20311;-85
2023/03/26 03:27:55;;;;;;;4.97;2.35;;;;;;;8.18;93.55;97431.97;4120706;28;20207;-86
2023/03/26 03:29:58;;;;;;;4.50;2.15;;;;;;;8.16;94.11;97423.44;4120181;28;20349;-85
2023/03/26 03:32:30;;;;;;;2.35;1.55;;;;;;;8.14;93.64;97428.72;4125624;28;20214;-85
2023/03/26 03:34:38;;;;;;;4.40;1.70;;;;;;;8.10;93.59;97424.69;4104843;28;20204;-86
2023/03/26 03:36:42;;;;;;;2.40;1.65;;;;;;;8.05;93.76;97412.94;4127117;28;20215;-86
2023/03/26 03:39:01;;;;;;;4.07;1.65;;;;;;;8.02;94.30;97408.78;4136569;28;20295;-85
2023/03/26 03:41:07;;;;;;;4.93;2.40;;;;;;;8.01;93.84;97403.69;4118944;28;20676;-85
2023/03/26 03:43:14;;;;;;;5.13;2.45;;;;;;;8.02;94.89;97400.16;4136593;28;20219;-86
2023/03/26 03:45:30;;;;;;;4.75;2.45;;;;;;;8.02;95.18;97395.78;4111083;28;20712;-86
2023/03/26 03:47:48;;;;;;;2.63;2.00;;;;;;;8.04;95.37;97400.88;4123017;28;20204;-85
2023/03/26 03:49:59;;;;;;;6.78;2.47;;;;;;;8.04;95.45;97395.69;4127021;28;20572;-85
2023/03/26 03:52:04;;;;;;;3.70;2.20;;;;;;;8.07;93.96;97393.72;4138683;28;20676;-85
2023/03/26 03:54:13;;;;;;;7.73;2.13;;;;;;;8.06;95.14;97394.66;4126994;28;20287;-86
2023/03/26 03:56:24;;;;;;;3.28;2.10;;;;;;;8.09;95.07;97391.03;4129223;28;20624;-85
2023/03/26 03:58:46;;;;;;;3.60;1.97;;;;;;;8.08;95.83;97379.78;4141701;28;20594;-85
2023/03/26 04:01:01;;;;;;;5.00;2.13;;;;;;;8.10;94.43;97387.47;4123691;28;20639;-85
2023/03/26 04:03:37;;;;;;;3.78;2.10;;;;;;;8.12;96.07;97378.69;4128102;28;20211;-85
2023/03/26 04:05:53;;;;;;;4.38;2.03;;;;;;;8.13;95.46;97377.75;4119164;28;20304;-85
2023/03/26 04:07:59;;;;;;;2.57;2.10;;;;;;;8.16;96.06;97369.75;4123813;28;20298;-85
2023/03/26 04:10:16;;;;;;;4.85;2.50;;;;;;;8.13;95.34;97354.38;4137611;28;21025;-85
2023/03/26 04:12:38;;;;;;;6.50;2.55;;;;;;;8.13;94.58;97359.56;4125826;28;20212;-85
2023/03/26 04:14:42;;;;;;;3.92;2.45;;;;;;;8.14;96.19;97361.22;4106798;28;20260;-85
2023/03/26 04:16:49;;;;;;;3.63;2.45;;;;;;;8.13;95.81;97353.53;4122245;28;20227;-85
2023/03/26 04:18:52;;;;;;;4.95;2.15;;;;;;;8.15;95.54;97365.47;4115994;28;20225;-85
2023/03/26 04:21:01;;;;;;;7.07;2.75;;;;;;;8.16;94.72;97367.16;4110674;28;20215;-85
2023/03/26 04:23:06;;;;;;;4.70;2.47;;;;;;;8.15;96.28;97352.50;4104540;28;20215;-84
2023/03/26 04:25:10;;;;;;;6.90;2.10;;;;;;;8.16;95.67;97358.50;4100915;28;20747;-85
2023/03/26 04:27:37;;;;;;;3.97;2.30;;;;;;;8.17;96.31;97357.59;4128309;28;20204;-85
2023/03/26 04:30:08;;;;;;;4.20;2.30;;;;;;;8.20;95.85;97352.19;4111149;28;20298;-85
2023/03/26 04:32:18;;;;;;;4.72;2.30;;;;;;;8.23;94.51;97338.97;4126121;28;20258;-85
2023/03/26 04:34:23;;;;;;;4.35;2.55;;;;;;;8.24;94.51;97333.66;4115550;28;20722;-85
2023/03/26 04:36:36;;;;;;;2.97;1.90;;;;;;;8.21;95.70;97333.03;4143197;28;20738;-85
2023/03/26 04:38:41;;;;;;;5.55;2.13;;;;;;;8.17;95.03;97329.84;4135625;28;20215;-85
2023/03/26 04:40:47;;;;;;;7.75;2.85;;;;;;;8.15;96.05;97316.16;4129262;28;20204;-85
2023/03/26 04:43:17;;;;;;;6.53;2.10;;;;;;;8.14;95.94;97319.66;4138364;28;20202;-85
2023/03/26 04:45:49;;;;;;;3.80;2.75;;;;;;;8.15;94.94;97312.72;4124979;28;20215;-85
2023/03/26 04:47:54;;;;;;;3.72;2.25;;;;;;;8.14;94.84;97311.06;4140387;28;20290;-85
2023/03/26 04:49:57;;;;;;;5.53;2.60;;;;;;;8.16;96.20;97291.84;4107986;28;20265;-85
2023/03/26 04:52:02;;;;;;;5.22;2.50;;;;;;;8.18;95.99;97289.97;4130003;28;20672;-84
2023/03/26 04:54:25;;;;;;;5.38;2.60;;;;;;;8.19;95.19;97286.41;4120632;28;20204;-85
2023/03/26 04:56:39;;;;;;;4.40;2.70;;;;;;;8.18;96.24;97278.75;4125229;28;20200;-84
2023/03/26 04:58:50;;;;;;;5.80;2.30;;;;;;;8.19;95.78;97272.59;4120944;28;20301;-85
2023/03/26 05:00:54;;;;;;;5.20;2.47;;;;;;;8.19;96.28;97273.41;4118857;28;20283;-85
2023/03/26 05:02:58;;;;;;;4.47;2.75;;;;;;;8.20;95.44;97277.69;4113579;28;21070;-84
2023/03/26 05:05:02;;;;;;;5.00;2.83;;;;;;;8.19;95.68;97268.22;4131202;28;20236;-85
2023/03/26 05:07:08;;;;;;;5.18;2.50;;;;;;;8.21;95.99;97261.16;4123089;28;20235;-85
2023/03/26 05:09:17;;;;;;;5.43;2.80;;;;;;;8.21;95.33;97255.13;4119818;28;20211;-85
2023/03/26 05:11:43;;;;;;;3.65;2.70;;;;;;;8.19;95.61;97252.63;4129848;28;20624;-85
2023/03/26 05:13:47;;;;;;;4.38;2.38;;;;;;;8.18;96.20;97245.81;4143231;28;20203;-85
2023/03/26 05:15:51;;;;;;;3.05;2.63;;;;;;;8.17;95.32;97248.53;4125167;28;20271;-85
2023/03/26 05:18:13;;;;;;;5.70;2.55;;;;;;;8.18;96.20;97247.59;4130024;28;20295;-85
2023/03/26 05:20:21;;;;;;;4.80;3.05;;;;;;;8.20;95.17;97243.91;4131422;28;20223;-85
2023/03/26 05:22:26;;;;;;;5.28;2.95;;;;;;;8.23;95.57;97238.50;4114719;28;20211;-85
2023/03/26 05:24:44;;;;;;;4.80;2.55;;;;;;;8.25;95.59;97236.63;4127287;28;20216;-86
2023/03/26 05:26:47;;;;;;;3.58;2.45;;;;;;;8.27;95.59;97241.69;4121531;28;20311;-86
2023/03/26 05:28:53;;;;;;;4.65;2.75;;;;;;;8.29;96.66;97250.22;4124294;28;20220;-85
2023/03/26 05:31:01;;;;;;;5.25;2.70;;;;;;;8.31;95.36;97249.16;4136509;28;20212;-85
2023/03/26 05:33:08;;;;;;;3.53;2.90;;;;;;;8.31;95.52;97256.94;4120627;28;20654;-85
2023/03/26 05:35:20;;;;;;;7.22;2.90;;;;;;;8.32;96.68;97248.22;4138328;28;20239;-86
2023/03/26 05:37:24;;;;;;;5.57;3.22;;;;;;;8.32;96.05;97245.63;4126428;28;20223;-86
2023/03/26 05:39:40;;;;;;;5.30;3.42;;;;;;;8.32;95.92;97243.03;4104937;28;20247;-86
2023/03/26 05:42:01;;;;;;;4.40;2.80;;;;;;;8.35;96.13;97242.81;4123832;28;20196;-86
2023/03/26 05:44:35;;;;;;;9.20;6.30;;;;;;;8.35;96.36;97242.81;4113678;28;20205;-86
2023/03/26 05:46:44;;;;;;;8.90;6.20;;;;;;;8.34;94.85;97229.94;4112182;28;20325;-85
2023/03/26 05:48:55;;;;;;;8.75;3.70;;;;;;;8.34;95.08;97222.13;4121917;28;20781;-86
2023/03/26 05:50:58;;;;;;;5.10;3.40;;;;;;;8.37;96.09;97219.31;4120935;28;20243;-85
2023/03/26 05:53:04;;;;;;;3.40;3.10;;;;;;;8.39;95.82;97226.06;4121209;28;20205;-86
2023/03/26 05:55:24;;;;;;;5.03;3.05;;;;;;;8.38;95.67;97221.00;4126896;28;20264;-85
2023/03/26 05:57:46;;;;;;;5.47;3.05;;;;;;;8.39;96.04;97217.44;4121502;28;20203;-85
2023/03/26 06:00:09;;;;;;;3.95;3.05;;;;;;;8.41;95.30;97220.75;4137782;28;20233;-86
2023/03/26 06:02:18;;;;;;;7.45;3.25;;;;;;;8.41;95.28;97211.19;4121899;28;20594;-85
2023/03/26 06:04:41;;;;;;;9.45;3.42;;;;;;;8.43;96.71;97211.06;4122144;28;20672;-85
2023/03/26 06:07:11;;;;;;;7.35;3.58;;;;;;;8.46;96.69;97203.88;4124631;28;20825;-85
2023/03/26 06:09:18;;;;;;;6.15;3.15;;;;;;;8.50;95.64;97205.31;4125605;28;20208;-85
2023/03/26 06:11:22;;;;;;;3.83;3.03;;;;;;;8.53;96.77;97194.69;4114943;28;20669;-85
2023/03/26 06:13:25;;;;;;;6.03;2.92;;;;;;;8.56;96.28;97192.69;4127349;28;20215;-85
2023/03/26 06:15:29;;;;;;;4.95;2.97;;;;;;;8.59;95.51;97189.84;4111352;28;20343;-85
2023/03/26 06:17:38;;;;;;;4.55;2.60;;;;;;;8.64;95.80;97187.72;4106942;28;20379;-85
2023/03/26 06:19:49;;;;;;;4.15;2.72;;;;;;;8.68;96.52;97185.75;4115718;28;20286;-85
2023/03/26 06:22:06;;;;;;;6.90;5.38;;;;;;;8.74;96.26;97177.50;4139231;28;20309;-85
2023/03/26 06:24:26;;;;;;;6.70;4.05;;;;;;;8.74;96.91;97173.13;4138027;28;20215;-85
2023/03/26 06:26:50;;;;;;;7.55;3.50;;;;;;;8.76;97.16;97175.59;4123503;28;20230;-85
2023/03/26 06:29:15;;;;;;;16.15;8.45;;;;;;;8.76;97.03;97173.81;4118765;28;20277;-85
2023/03/26 06:31:45;;;;;;;12.95;4.95;;;;;;;8.74;96.58;97165.31;4120510;28;20230;-86
2023/03/26 06:33:52;;;;;;;5.20;2.17;;;;;;;8.82;97.20;97170.75;4122072;28;20228;-86
2023/03/26 06:35:56;;;;;;;6.43;2.80;;;;;;;8.90;96.84;97176.22;4125418;28;20251;-86
2023/03/26 06:38:02;;;;;;;4.50;1.73;;;;;;;8.99;95.58;97165.94;4112154;28;20706;-86
2023/03/26 06:40:08;;;;;;;4.45;1.80;;;;;;;9.06;93.90;97161.06;4114200;28;20215;-86
2023/03/26 06:42:41;;;;;;;5.25;1.77;;;;;;;9.15;94.13;97147.38;4107551;28;20216;-86
2023/03/26 06:45:22;;;;;;;5.88;2.22;;;;;;;9.18;93.26;97131.53;4109295;28;20243;-85
2023/03/26 06:47:43;;;;;;;3.75;2.42;;;;;;;9.25;93.84;97133.53;4133803;28;20247;-85
2023/03/26 06:50:22;;;;;;;7.68;1.60;;;;;;;9.33;92.00;97131.13;4104149;28;20211;-85
2023/03/26 06:52:49;;;;;;;3.83;1.30;;;;;;;9.38;92.43;97135.03;4122463;28;20204;-86
2023/03/26 06:55:19;;;;;;;6.20;1.98;;;;;;;9.44;91.79;97118.94;4124274;28;20294;-86
2023/03/26 06:57:34;;;;;;;5.65;1.70;;;;;;;9.46;91.28;97106.63;4135438;28;20262;-86
2023/03/26 06:59:59;;;;;;;3.55;1.58;;;;;;;9.50;91.14;97108.06;4129632;28;20232;-85
2023/03/26 07:02:21;;;;;;;3.83;1.50;;;;;;;9.56;91.25;97107.56;4135082;28;20203;-86
2023/03/26 07:04:43;;;;;;;4.47;1.38;;;;;;;9.60;90.48;97108.94;4123912;28;20674;-86
2023/03/26 07:07:05;;;;;;;7.43;1.70;;;;;;;9.58;90.05;97102.22;4118642;28;20689;-86
2023/03/26 07:09:29;;;;;;;4.00;1.25;;;;;;;9.62;89.34;97101.03;4117384;28;20310;-86
2023/03/26 07:11:35;;;;;;;3.93;1.70;;;;;;;9.66;89.83;97098.03;4124292;28;20303;-86
2023/03/26 07:13:41;;;;;;;7.43;1.80;;;;;;;9.72;89.76;97094.13;4120971;28;20639;-85
2023/03/26 07:16:05;;;;;;;3.53;1.47;;;;;;;9.73;89.42;97091.41;4120074;28;20208;-85
2023/03/26 07:18:31;;;;;;;4.00;1.60;;;;;;;9.74;88.40;97097.44;4122396;28;20714;-86
2023/03/26 07:20:37;;;;;;;6.93;2.47;;;;;;;9.73;88.61;97094.00;4126964;28;20643;-86
2023/03/26 07:22:41;;;;;;;10.00;1.90;;;;;;;9.74;88.23;97084.41;4124833;28;20203;-86
2023/03/26 07:24:51;;;;;;;3.70;1.85;;;;;;;9.72;88.48;97083.72;4139245;28;20637;-86
2023/03/26 07:27:24;;;;;;;7.28;2.05;;;;;;;9.70;88.54;97076.03;4110157;28;20228;-86
2023/03/26 07:29:35;;;;;;;5.85;1.83;;;;;;;9.72;87.61;97079.34;4142031;28;20298;-86
2023/03/26 07:31:46;;;;;;;4.50;1.23;;;;;;;9.76;88.30;97075.53;4108374;28;20208;-86
2023/03/26 07:34:33;;;;;;;8.25;2.03;;;;;;;9.83;88.24;97068.03;4121580;28;20634;-86
2023/03/26 07:36:52;;;;;;;4.88;1.60;;;;;;;9.86;88.37;97058.19;4102161;28;20205;-86
2023/03/26 07:39:32;;;;;;;4.45;1.70;;;;;;;9.90;87.88;97054.41;4122466;28;20263;-85
2023/03/26 07:42:00;;;;;;;4.53;1.67;;;;;;;9.94;86.68;97046.25;4103539;28;20264;-85
2023/03/26 07:44:31;;;;;;;7.10;1.93;;;;;;;9.99;86.79;97038.88;4119615;28;20671;-86
2023/03/26 07:47:21;;;;;;;3.80;1.57;;;;;;;10.08;86.08;97043.31;4120556;28;20639;-85
2023/03/26 07:49:54;;;;;;;5.23;1.90;;;;;;;10.10;85.55;97036.22;4137530;28;20648;-85
2023/03/26 07:52:27;;;;;;;4.17;1.57;;;;;;;10.14;84.75;97032.38;4107936;28;21241;-86
2023/03/26 07:54:54;;;;;;;3.40;1.70;;;;;;;10.18;84.70;97033.78;4113995;28;20726;-85
2023/03/26 07:57:19;;;;;;;4.93;2.03;;;;;;;10.15;85.45;97039.25;4120659;28;20636;-85
2023/03/26 07:59:44;;;;;;;5.20;2.13;;;;;;;10.11;84.10;97048.28;4100087;28;20630;-85
2023/03/26 08:02:26;;;;;;;4.10;2.00;;;;;;;10.06;85.31;97055.66;4116938;28;20267;-85
2023/03/26 08:04:49;;;;;;;4.57;1.50;;;;;;;10.00;86.04;97048.34;4122160;28;20694;-85
2023/03/26 08:07:28;;;;;;;4.00;1.53;;;;;;;9.97;87.06;97037.38;4114564;28;21262;-86
2023/03/26 08:10:10;;;;;;;3.80;1.60;;;;;;;10.00;87.54;97044.94;4113748;28;20632;-86
2023/03/26 08:12:33;;;;;;;7.40;2.00;;;;;;;10.00;88.22;97040.53;4104051;28;20675;-86
2023/03/26 08:14:44;;;;;;;3.38;1.70;;;;;;;9.97;87.74;97035.56;4126560;28;20685;-85
2023/03/26 08:16:53;;;;;;;5.23;1.83;;;;;;;9.99;88.28;97031.06;4119891;28;20204;-85
2023/03/26 08:19:03;;;;;;;3.57;1.57;;;;;;;10.04;89.39;97036.72;4124239;28;20635;-85
2023/03/26 08:21:10;;;;;;;4.00;1.80;;;;;;;10.07;89.05;97030.41;4130801;28;20623;-85
2023/03/26 08:23:17;;;;;;;6.07;1.83;;;;;;;10.06;89.22;97029.59;4106908;28;20648;-85
2023/03/26 08:25:31;;;;;;;8.03;2.10;;;;;;;10.03;89.69;97029.03;4117492;28;20646;-85
2023/03/26 08:27:38;;;;;;;6.20;1.70;;;;;;;10.05;90.65;97032.34;4105779;28;20725;-85
2023/03/26 08:29:48;;;;;;;3.77;1.73;;;;;;;10.04;89.62;97028.91;4121058;28;20651;-85
2023/03/26 08:31:52;;;;;;;3.47;1.67;;;;;;;10.06;90.86;97029.59;4123915;28;21282;-85
2023/03/26 08:33:56;;;;;;;5.53;2.10;;;;;;;10.07;90.06;97020.00;4124733;28;20666;-86
2023/03/26 08:35:59;;;;;;;5.00;1.73;;;;;;;10.10;90.25;97015.38;4126381;28;20738;-86
2023/03/26 08:38:02;;;;;;;2.63;1.67;;;;;;;10.12;91.44;97018.69;4128675;28;21169;-86
2023/03/26 08:40:08;;;;;;;5.07;1.90;;;;;;;10.14;91.17;97015.94;4105497;28;20642;-86
2023/03/26 08:42:49;;;;;;;5.37;2.23;;;;;;;10.13;90.32;97011.66;4126382;28;20624;-86
2023/03/26 08:45:21;;;;;;;4.20;1.70;;;;;;;10.10;90.21;97014.53;4122766;28;21217;-86
2023/03/26 08:47:58;;;;;;;6.20;1.60;;;;;;;10.10;91.01;97017.13;4121268;28;20636;-86
2023/03/26 08:50:20;;;;;;;5.57;2.40;;;;;;;10.08;90.25;97000.81;4128519;28;20624;-86
2023/03/26 08:52:51;;;;;;;5.37;2.07;;;;;;;10.06;91.14;96997.53;4122550;28;20673;-86
2023/03/26 08:55:25;;;;;;;5.50;2.63;;;;;;;10.05;91.00;96991.47;4118909;28;21227;-86
2023/03/26 08:58:04;;;;;;;5.90;2.60;;;;;;;10.03;91.64;96992.56;4106053;28;20640;-86
2023/03/26 09:00:40;;;;;;;5.93;2.20;;;;;;;10.05;93.02;96993.25;4075438;28;20637;-86
2023/03/26 09:03:10;;;;;;;6.53;2.67;;;;;;;10.09;93.50;96989.47;4124531;28;20638;-86
2023/03/26 09:05:49;;;;;;;9.30;2.60;;;;;;;10.06;93.07;96985.31;4135800;28;20674;-85
2023/03/26 09:08:22;;;;;;;5.10;2.23;;;;;;;10.03;93.14;96992.56;4141638;28;20630;-86
2023/03/26 09:10:52;;;;;;;6.07;2.47;;;;;;;10.05;93.69;96988.06;4122446;28;20637;-86
2023/03/26 09:13:33;;;;;;;6.77;2.40;;;;;;;10.03;93.47;96987.38;4124830;28;20666;-86
2023/03/26 09:16:05;;;;;;;6.17;2.20;;;;;;;10.00;93.22;96978.03;4120951;28;20631;-86
2023/03/26 09:18:37;;;;;;;8.17;2.70;;;;;;;10.03;94.68;96975.16;4125145;28;20652;-86
2023/03/26 09:21:06;;;;;;;4.33;1.90;;;;;;;10.10;94.52;96981.50;4118428;28;20642;-85
2023/03/26 09:23:25;;;;;;;6.60;2.67;;;;;;;10.14;94.71;96974.25;4124781;28;20650;-85
2023/03/26 09:25:55;;;;;;;8.45;2.17;;;;;;;10.18;95.00;96976.47;4121940;28;20635;-86
2023/03/26 09:28:19;;;;;;;6.37;2.10;;;;;;;10.22;94.65;96979.63;4119969;28;20219;-86
2023/03/26 09:30:48;;;;;;;4.80;2.30;;;;;;;10.26;94.72;96973.22;4106461;28;20667;-86
2023/03/26 09:33:16;;;;;;;5.57;2.07;;;;;;;10.43;94.39;96973.41;4127002;28;20661;-86
2023/03/26 09:35:53;;;;;;;11.27;2.90;;;;;;;10.60;95.32;96970.19;4109147;28;20644;-86
2023/03/26 09:38:02;;;;;;;4.03;1.60;;;;;;;10.62;94.25;96981.31;4124668;28;20639;-85
2023/03/26 09:40:16;;;;;;;5.37;2.00;;;;;;;10.61;94.21;96974.44;4108077;28;20648;-86
2023/03/26 09:42:24;;;;;;;2.60;1.80;;;;;;;10.60;94.36;96970.19;4125189;28;20649;-91
2023/03/26 09:44:43;;;;;;;3.53;1.97;;;;;;;10.58;94.72;96959.06;4128549;28;20636;-85
2023/03/26 09:46:55;;;;;;;4.70;2.03;;;;;;;10.57;94.62;96967.84;4124544;28;21236;-86
2023/03/26 09:49:25;;;;;;;3.60;2.40;;;;;;;10.67;94.08;96968.72;4123486;28;20766;-86
2023/03/26 09:52:10;;;;;;;5.60;2.10;;;;;;;10.75;94.28;96974.91;4134126;28;20631;-86
2023/03/26 09:54:43;;;;;;;6.17;2.70;;;;;;;10.96;96.87;96970.41;4101048;28;21199;-86
2023/03/26 09:56:56;;;;;;;4.47;2.40;;;;;;;11.19;95.26;96970.06;4127841;28;20662;-86
2023/03/26 09:59:20;;;;;;;3.63;2.30;;;;;;;11.43;97.35;96963.47;4139870;28;20681;-85
2023/03/26 10:01:32;;;;;;;6.03;2.60;;;;;;;11.83;97.70;96965.00;4120130;28;20654;-86
2023/03/26 10:03:55;;;;;;;5.00;2.27;;;;;;;12.01;95.53;96978.16;4126413;28;20658;-87
2023/03/26 10:06:20;;;;;;;8.67;3.13;;;;;;;12.04;95.50;96975.25;4146939;28;20810;-87
2023/03/26 10:08:50;;;;;;;12.20;5.53;;;;;;;12.16;94.44;96976.75;4143323;28;20658;-87
2023/03/26 10:10:56;;;;;;;20.33;11.77;;;;;;;12.17;92.93;96968.75;4113292;28;20648;-86
2023/03/26 10:13:05;;;;;;;7.00;4.10;;;;;;;12.07;92.35;96967.97;4102617;28;20635;-86
2023/03/26 10:15:24;;;;;;;5.17;2.70;;;;;;;11.97;92.21;96967.16;4108653;28;20757;-86
2023/03/26 10:17:41;;;;;;;5.60;3.53;;;;;;;11.98;92.45;96968.81;4119424;28;21210;-86
2023/03/26 10:20:07;;;;;;;4.37;2.40;;;;;;;12.05;92.84;96958.63;4124362;28;20655;-87
2023/03/26 10:22:20;;;;;;;5.07;2.13;;;;;;;12.08;95.54;96959.16;4144935;28;20623;-86
2023/03/26 10:24:40;;;;;;;4.93;2.17;;;;;;;12.15;94.65;96954.16;4129550;28;21089;-86
2023/03/26 10:26:54;;;;;;;3.83;1.80;;;;;;;12.05;95.40;96953.38;4120875;28;20685;-86
2023/03/26 10:29:36;;;;;;;4.10;2.27;;;;;;;12.02;95.85;96967.56;4121630;28;21272;-86
2023/03/26 10:31:47;;;;;;;3.77;1.87;;;;;;;11.99;96.21;96948.72;4112721;28;20624;-86
2023/03/26 10:34:01;;;;;;;5.15;2.15;;;;;;;12.06;94.69;96953.25;4120694;28;20854;-86
2023/03/26 10:36:19;;;;;;;3.90;2.03;;;;;;;12.64;96.82;96962.53;4107251;28;20321;-86